Back to top

Gillette, WY weather

Gillette-Campbell County Airport (AMOS), Gillette, WY: 11/13/2019 17:53
Visibility10 statute mileslots of clouds
View 7-Day Forecast
Area Summary
Sky/CloudsBroken at 9500ft, Solid Overcast at 11000ft
Weather [last 24 hours]None [rain began 00:27 ended 00:30; unknown precip began 01:09 ended 01:28 ]
Pressure30.1 in.Hg (1019 hPa)
Dew Point32 °F (0 °C)
Relative Humidity92.4 %
Last 24-Hour Precip.0.01 in. (0.254 mm)
Reading TimePrecipitation
6-hr ending 11/13@04:530.01 in. (0.254 mm)
24-hr ending 11/13@04:530.01 in. (0.254 mm)
Temperature34 °F (1.1 °C)red thermometer
Wind Chill28.8 °F (-1.78 °C)
Reading TimeMinimum to Maximum Temperature
6-hr ending 11/13@16:5337 °F to 43 °F (2.8 °C to 6.1 °C)
6-hr ending 11/13@10:5333.1 °F to 37.9 °F (0.6 °C to 3.3 °C)
6-hr ending 11/13@04:5335.1 °F to 39 °F (1.7 °C to 3.9 °C)
6-hr ending 11/12@22:5334 °F to 46 °F (1.1 °C to 7.8 °C)
24-hr ending 11/12@23:5324.1 °F to 48 °F (-4.4 °C to 8.9 °C)
Wind5.75 MPH (5 KT) green arrow pointing 270 degrees
Wind FromWest (260 Degrees)
Twilight Begins06:23Sunshine Yesterday
Sunrise06:55N/A
Sunset16:38
Twilight Ends17:09
METARKGCC 140053Z AUTO 26005KT 10SM BKN095 OVC110 01/00 A3010 RMK AO2 SLP213 T00110000
Tags: